Time;durP1;ratioP1;P1;durP2;ratioP2;P2;SDS_P1;SDS_P2;PMS_P1;PMS_P2;Temp;Humidity;BMP_temperature;BMP_pressure;BME280_temperature;BME280_humidity;BME280_pressure;Samples;Min_cycle;Max_cycle;Signal;HPM_P1;HPM_P2
2021/01/05 00:01:42;;;;;;;87.80;33.23;;;;;;;2.67;95.44;98564.73;4487774;78;21431;-90
2021/01/05 00:07:44;;;;;;;100.65;37.93;;;;;;;2.72;95.45;98564.53;4487255;78;21136;-91
2021/01/05 00:13:46;;;;;;;80.95;33.18;;;;;;;2.75;95.40;98562.51;4495653;78;21585;-90
2021/01/05 00:19:48;;;;;;;87.12;34.43;;;;;;;2.74;95.37;98554.95;4481616;78;21465;-89
2021/01/05 00:25:49;;;;;;;132.20;43.95;;;;;;;2.73;95.59;98558.79;4489175;78;21637;-89
2021/01/05 00:32:11;;;;;;;97.62;34.90;;;;;;;2.80;95.50;98556.89;4484954;78;22408;-90
2021/01/05 00:38:12;;;;;;;74.85;31.60;;;;;;;2.84;95.67;98559.14;4496406;78;21658;-90
2021/01/05 00:44:14;;;;;;;91.10;36.90;;;;;;;2.92;95.68;98563.67;4493134;78;21136;-90
2021/01/05 00:50:16;;;;;;;100.70;37.63;;;;;;;2.96;95.59;98561.89;4494888;78;21133;-90
2021/01/05 00:56:18;;;;;;;95.03;36.53;;;;;;;2.93;95.36;98558.48;4487841;78;21164;-90
2021/01/05 01:02:20;;;;;;;70.97;30.55;;;;;;;2.95;95.66;98550.83;4490560;78;21125;-90
2021/01/05 01:08:22;;;;;;;71.57;30.45;;;;;;;2.97;95.40;98543.98;4494911;78;21175;-89
2021/01/05 01:14:26;;;;;;;72.65;31.02;;;;;;;2.93;95.52;98540.36;4481213;78;21128;-89
2021/01/05 01:20:27;;;;;;;67.87;29.92;;;;;;;2.96;95.44;98542.97;4490339;78;21200;-90
2021/01/05 01:26:30;;;;;;;72.25;31.52;;;;;;;2.95;95.34;98538.11;4488297;78;21709;-90
2021/01/05 01:32:33;;;;;;;78.62;32.15;;;;;;;2.96;95.59;98539.68;4494032;78;21105;-90
2021/01/05 01:38:34;;;;;;;64.53;29.18;;;;;;;3.01;95.53;98530.00;4492816;78;21449;-90
2021/01/05 01:44:40;;;;;;;62.13;28.90;;;;;;;3.02;95.49;98526.16;4491530;78;21290;-90
2021/01/05 01:50:42;;;;;;;60.63;27.35;;;;;;;3.05;95.47;98509.84;4492003;78;21280;-90
2021/01/05 01:57:07;;;;;;;56.18;26.90;;;;;;;3.08;95.33;98503.20;4465064;78;21208;-90
2021/01/05 02:03:42;;;;;;;56.63;25.25;;;;;;;3.03;95.38;98493.16;4489928;78;21152;-91
2021/01/05 02:10:24;;;;;;;53.90;25.10;;;;;;;2.96;95.18;98493.72;4485744;78;21164;-90
2021/01/05 02:16:50;;;;;;;51.00;23.83;;;;;;;3.01;95.61;98493.50;4487404;78;21155;-90
2021/01/05 02:22:59;;;;;;;51.92;24.12;;;;;;;3.04;95.46;98490.13;4488746;77;21610;-90
2021/01/05 02:29:09;;;;;;;52.17;24.75;;;;;;;3.05;95.38;98486.28;4498902;78;21167;-90
2021/01/05 02:35:26;;;;;;;54.55;24.65;;;;;;;3.02;95.34;98481.55;4480671;78;22467;-90
2021/01/05 02:42:07;;;;;;;53.52;24.43;;;;;;;2.99;95.27;98470.64;4481039;78;21709;-90
2021/01/05 02:48:49;;;;;;;56.90;25.30;;;;;;;2.98;95.31;98463.64;4491476;78;21619;-90
2021/01/05 02:55:54;;;;;;;56.90;25.77;;;;;;;3.02;95.42;98452.39;4486417;78;21145;-90
2021/01/05 03:02:50;;;;;;;50.88;26.33;;;;;;;2.99;95.37;98440.31;4488812;78;21125;-90
2021/01/05 03:09:11;;;;;;;52.65;25.70;;;;;;;2.99;95.33;98434.91;4585975;76;22825;-90
2021/01/05 03:15:48;;;;;;;61.02;28.10;;;;;;;2.92;95.29;98426.59;4488201;78;21630;-87
2021/01/05 03:22:10;;;;;;;59.90;28.20;;;;;;;2.91;95.30;98408.77;4487996;78;21140;-90
2021/01/05 03:28:32;;;;;;;66.07;30.72;;;;;;;2.87;95.21;98411.94;4485414;77;21671;-90
2021/01/05 03:34:52;;;;;;;63.98;28.52;;;;;;;2.80;95.36;98405.53;4496230;78;21151;-90
2021/01/05 03:41:12;;;;;;;64.58;30.57;;;;;;;2.78;95.28;98397.76;4494910;78;21180;-89
2021/01/05 03:47:32;;;;;;;58.90;27.90;;;;;;;2.82;95.29;98387.83;4484440;78;21160;-90
2021/01/05 03:53:53;;;;;;;60.30;28.73;;;;;;;2.81;95.36;98383.56;4490213;78;21121;-90
2021/01/05 04:00:24;;;;;;;54.90;26.27;;;;;;;2.76;95.51;98382.98;4487467;78;21586;-90
2021/01/05 04:06:27;;;;;;;56.80;27.65;;;;;;;2.76;95.30;98370.82;4490448;78;21498;-90
2021/01/05 04:12:29;;;;;;;53.02;26.97;;;;;;;2.73;95.46;98371.50;4488155;78;21082;-90
2021/01/05 04:18:30;;;;;;;57.15;26.95;;;;;;;2.75;95.56;98368.70;4485241;78;21116;-89
2021/01/05 04:24:32;;;;;;;51.55;26.97;;;;;;;2.78;95.48;98361.82;4489141;78;21153;-90
2021/01/05 04:30:37;;;;;;;53.68;26.50;;;;;;;2.76;95.47;98354.61;4484655;78;21136;-89
2021/01/05 04:36:39;;;;;;;50.75;25.72;;;;;;;2.79;95.44;98351.22;4490835;78;21431;-90
2021/01/05 04:42:42;;;;;;;54.33;27.37;;;;;;;2.79;95.41;98352.58;4488013;78;21164;-90
2021/01/05 04:48:57;;;;;;;54.13;28.12;;;;;;;2.74;95.51;98348.19;4488615;78;21193;-90
2021/01/05 04:55:08;;;;;;;55.12;27.40;;;;;;;2.77;95.37;98348.86;4491274;78;21589;-90
2021/01/05 05:01:35;;;;;;;57.88;28.47;;;;;;;2.82;95.57;98349.19;4482903;78;21092;-90
2021/01/05 05:08:15;;;;;;;49.13;26.20;;;;;;;2.78;95.56;98349.66;4494659;78;21172;-90
2021/01/05 05:14:43;;;;;;;47.70;26.82;;;;;;;2.74;95.36;98339.31;4490466;78;21152;-89
2021/01/05 05:21:21;;;;;;;56.10;27.90;;;;;;;2.70;95.53;98333.80;4488835;78;21117;-90
2021/01/05 05:27:28;;;;;;;50.03;25.77;;;;;;;2.67;95.87;98335.83;4482964;78;21124;-89
2021/01/05 05:33:37;;;;;;;46.30;24.63;;;;;;;2.71;95.70;98339.41;4489258;78;21192;-90
2021/01/05 05:40:05;;;;;;;47.70;25.68;;;;;;;2.71;95.60;98326.48;4485866;78;21141;-90
2021/01/05 05:46:11;;;;;;;42.73;23.57;;;;;;;2.72;95.56;98330.75;4494251;78;21666;-89
2021/01/05 05:52:35;;;;;;;42.23;24.53;;;;;;;2.73;95.83;98330.96;4490340;78;21881;-90
2021/01/05 05:58:40;;;;;;;43.98;24.27;;;;;;;2.74;95.88;98328.50;4490522;78;21133;-90
2021/01/05 06:04:42;;;;;;;37.53;21.82;;;;;;;2.78;95.63;98319.38;4485504;78;21120;-90
2021/01/05 06:10:44;;;;;;;46.13;23.40;;;;;;;2.74;95.66;98325.80;4486218;78;21167;-90
2021/01/05 06:16:46;;;;;;;37.13;21.55;;;;;;;2.73;95.93;98318.25;4491961;78;21909;-90
2021/01/05 06:22:47;;;;;;;40.63;20.43;;;;;;;2.77;95.95;98313.72;4490202;78;21600;-87
2021/01/05 06:28:49;;;;;;;36.95;20.82;;;;;;;2.77;95.80;98306.97;4492202;78;21159;-90
2021/01/05 06:34:51;;;;;;;37.78;21.65;;;;;;;2.77;95.84;98303.50;4491318;78;21605;-90
2021/01/05 06:40:52;;;;;;;41.95;21.80;;;;;;;2.81;95.96;98301.13;4488902;78;21128;-89
2021/01/05 06:46:54;;;;;;;40.98;22.00;;;;;;;2.79;95.86;98299.87;4483037;78;21113;-90
2021/01/05 06:52:56;;;;;;;39.45;21.50;;;;;;;2.89;96.27;98300.20;4494204;78;21618;-90
2021/01/05 06:58:57;;;;;;;36.77;19.82;;;;;;;2.94;96.05;98295.13;4487127;78;21164;-90
2021/01/05 07:04:58;;;;;;;36.85;19.82;;;;;;;2.81;95.70;98294.36;4489063;78;21165;-89
2021/01/05 07:11:00;;;;;;;16.00;9.55;;;;;;;2.74;96.00;98296.07;4490301;78;21723;-90
2021/01/05 07:17:01;;;;;;;12.35;6.75;;;;;;;2.80;95.96;98294.13;4493855;78;21661;-90
2021/01/05 07:23:03;;;;;;;11.15;6.15;;;;;;;2.86;96.02;98290.08;4485790;78;21106;-90
2021/01/05 07:29:04;;;;;;;12.80;8.35;;;;;;;2.90;95.94;98293.66;4484545;78;22027;-90
2021/01/05 07:35:07;;;;;;;19.65;12.10;;;;;;;2.92;95.92;98290.06;4485555;77;21106;-89
2021/01/05 07:41:09;;;;;;;24.25;13.62;;;;;;;2.95;95.99;98281.27;4491980;78;21141;-90
2021/01/05 07:47:11;;;;;;;24.50;13.85;;;;;;;2.96;96.01;98278.01;4489776;78;21214;-90
2021/01/05 07:53:12;;;;;;;29.42;16.35;;;;;;;2.97;95.94;98272.26;4491941;78;21134;-89
2021/01/05 07:59:15;;;;;;;33.83;16.67;;;;;;;2.98;95.93;98273.02;4485899;78;21113;-90
2021/01/05 08:05:19;;;;;;;32.10;17.55;;;;;;;2.99;95.79;98271.91;4493082;78;21144;-90
2021/01/05 08:11:21;;;;;;;28.15;16.85;;;;;;;2.99;95.76;98278.67;4487701;78;21181;-90
2021/01/05 08:17:23;;;;;;;30.95;17.32;;;;;;;2.93;95.62;98269.20;4489724;78;21133;-89
2021/01/05 08:23:24;;;;;;;33.73;18.15;;;;;;;2.73;95.37;98272.30;4488292;78;21167;-89
2021/01/05 08:29:26;;;;;;;29.82;16.20;;;;;;;2.63;95.42;98272.76;4494481;78;21435;-90
2021/01/05 08:35:28;;;;;;;25.00;16.07;;;;;;;2.57;95.47;98269.30;4487714;78;21280;-89
2021/01/05 08:41:30;;;;;;;27.15;16.17;;;;;;;2.58;95.37;98266.26;4499625;78;21152;-90
2021/01/05 08:47:31;;;;;;;28.95;17.73;;;;;;;2.56;95.33;98263.09;4499601;78;21160;-89
2021/01/05 08:53:32;;;;;;;31.52;17.12;;;;;;;2.51;95.30;98260.63;4494461;78;21196;-89
2021/01/05 08:59:34;;;;;;;30.23;18.95;;;;;;;2.48;95.44;98259.16;4490526;78;22046;-90
2021/01/05 09:05:35;;;;;;;33.00;18.35;;;;;;;2.46;95.38;98262.78;4498817;78;21141;-89
2021/01/05 09:11:37;;;;;;;31.75;19.67;;;;;;;2.53;95.35;98261.63;4487636;78;21140;-90
2021/01/05 09:17:41;;;;;;;31.25;18.17;;;;;;;2.51;95.35;98253.87;4455969;78;21148;-89
2021/01/05 09:23:43;;;;;;;29.42;17.62;;;;;;;2.53;95.27;98254.87;4455224;78;21208;-89
2021/01/05 09:29:45;;;;;;;33.45;18.98;;;;;;;2.49;95.31;98243.19;4489764;78;21626;-89
2021/01/05 09:35:50;;;;;;;30.82;18.80;;;;;;;2.47;95.10;98248.94;4492638;78;21152;-89
2021/01/05 09:41:58;;;;;;;41.35;20.50;;;;;;;2.53;95.29;98239.47;4490849;78;21623;-89
2021/01/05 09:48:11;;;;;;;37.40;20.48;;;;;;;2.54;95.13;98239.68;4483882;78;21316;-89
2021/01/05 09:54:15;;;;;;;35.88;20.02;;;;;;;2.52;95.18;98238.45;4489847;78;21173;-90
2021/01/05 10:00:17;;;;;;;32.70;18.67;;;;;;;2.55;95.30;98216.92;4484348;78;21593;-90
2021/01/05 10:06:20;;;;;;;33.95;21.00;;;;;;;2.67;95.18;98218.83;4489439;78;21133;-90
2021/01/05 10:12:21;;;;;;;34.18;19.95;;;;;;;2.70;95.19;98221.64;4484782;78;21164;-90
2021/01/05 10:18:23;;;;;;;41.10;21.52;;;;;;;2.75;95.11;98210.59;4491257;78;21575;-89
2021/01/05 10:24:24;;;;;;;42.83;22.50;;;;;;;2.83;95.38;98206.97;4486425;78;21148;-90
2021/01/05 10:30:27;;;;;;;40.40;21.90;;;;;;;2.93;95.14;98210.52;4488390;78;21192;-90
2021/01/05 10:36:28;;;;;;;38.75;22.75;;;;;;;3.00;95.02;98204.53;4488910;78;21152;-89
2021/01/05 10:42:29;;;;;;;58.23;26.35;;;;;;;3.05;95.04;98199.65;4492870;78;21189;-89
2021/01/05 10:48:31;;;;;;;37.13;20.27;;;;;;;3.08;94.84;98193.58;4490467;78;21159;-90
2021/01/05 10:54:33;;;;;;;37.30;22.05;;;;;;;3.10;94.70;98195.35;4492565;78;21125;-90
2021/01/05 11:00:35;;;;;;;43.25;23.47;;;;;;;2.96;94.79;98199.61;4486336;78;21176;-90
2021/01/05 11:06:37;;;;;;;42.62;21.97;;;;;;;2.94;94.69;98195.86;4490945;78;21586;-90
2021/01/05 11:12:38;;;;;;;37.70;21.02;;;;;;;2.79;94.44;98182.30;4493204;78;21179;-90
2021/01/05 11:18:44;;;;;;;40.45;20.25;;;;;;;2.73;94.50;98183.11;4496519;78;21578;-89
2021/01/05 11:24:45;;;;;;;45.10;24.40;;;;;;;2.74;94.51;98177.16;4494010;78;21137;-90
2021/01/05 11:30:47;;;;;;;46.30;23.40;;;;;;;2.58;94.42;98184.41;4493452;78;21113;-90
2021/01/05 11:36:49;;;;;;;48.23;23.02;;;;;;;2.53;94.63;98171.92;4497007;78;21104;-90
2021/01/05 11:42:51;;;;;;;44.88;23.47;;;;;;;2.42;94.34;98178.13;4494656;78;22219;-90
2021/01/05 11:48:54;;;;;;;47.50;25.02;;;;;;;2.41;94.62;98180.03;4499317;78;21156;-90
2021/01/05 11:54:55;;;;;;;46.20;23.90;;;;;;;2.40;94.49;98187.92;4492726;78;21140;-90
2021/01/05 12:00:57;;;;;;;44.95;24.50;;;;;;;2.40;94.54;98179.03;4493683;78;21180;-90
2021/01/05 12:06:59;;;;;;;50.63;26.00;;;;;;;2.42;94.59;98182.19;4486168;78;21581;-90
2021/01/05 12:13:00;;;;;;;51.28;24.45;;;;;;;2.42;94.36;98186.23;4500200;78;21149;-90
2021/01/05 12:19:09;;;;;;;46.98;23.62;;;;;;;2.34;94.01;98191.99;4497700;78;21185;-90
2021/01/05 12:25:12;;;;;;;49.27;25.12;;;;;;;2.32;94.54;98186.72;4501325;78;21662;-90
2021/01/05 12:31:13;;;;;;;51.10;26.52;;;;;;;2.27;94.50;98187.72;4490286;78;22257;-90
2021/01/05 12:37:19;;;;;;;47.70;25.12;;;;;;;2.29;94.53;98194.92;4490643;78;21132;-90
2021/01/05 12:43:21;;;;;;;47.62;23.02;;;;;;;2.26;94.35;98202.91;4484537;78;21147;-90
2021/01/05 12:49:24;;;;;;;46.23;24.23;;;;;;;2.20;94.16;98206.41;4499275;78;21132;-89
2021/01/05 12:55:26;;;;;;;47.45;26.25;;;;;;;2.16;94.37;98208.20;4470058;78;21755;-89
2021/01/05 13:01:27;;;;;;;47.23;26.57;;;;;;;2.14;94.31;98210.47;4489529;78;21590;-90
2021/01/05 13:07:29;;;;;;;45.43;24.00;;;;;;;2.12;94.56;98207.87;4482641;78;21168;-89
2021/01/05 13:13:30;;;;;;;47.10;23.52;;;;;;;2.13;94.44;98211.58;4453476;78;21160;-89
2021/01/05 13:19:32;;;;;;;49.20;24.05;;;;;;;2.21;94.61;98209.91;4455075;78;21187;-89
2021/01/05 13:25:33;;;;;;;44.10;23.12;;;;;;;2.27;94.50;98209.31;4455022;78;21148;-89
2021/01/05 13:31:42;;;;;;;44.48;23.35;;;;;;;2.18;94.21;98205.16;4457924;78;21149;-90
2021/01/05 13:37:47;;;;;;;45.43;23.25;;;;;;;2.06;94.09;98211.38;4452684;78;21143;-90
2021/01/05 13:43:48;;;;;;;49.48;23.70;;;;;;;2.03;94.28;98216.66;4454437;78;21191;-89
2021/01/05 13:49:51;;;;;;;44.77;23.80;;;;;;;1.99;94.25;98219.23;4454996;78;21142;-90
2021/01/05 13:55:52;;;;;;;42.10;22.42;;;;;;;1.90;94.21;98222.61;4452936;78;21485;-89
2021/01/05 14:02:01;;;;;;;44.00;21.57;;;;;;;1.91;94.19;98228.80;4451816;78;21594;-89
2021/01/05 14:08:03;;;;;;;47.17;24.35;;;;;;;1.89;94.25;98234.55;4460261;78;21582;-91
2021/01/05 14:14:05;;;;;;;51.08;24.80;;;;;;;1.85;94.37;98243.65;4481852;78;21153;-91
2021/01/05 14:20:08;;;;;;;49.30;24.47;;;;;;;1.81;94.27;98253.52;4490881;78;21169;-88
2021/01/05 14:26:09;;;;;;;46.23;24.95;;;;;;;1.84;94.30;98264.99;4489958;78;21160;-90
2021/01/05 14:32:13;;;;;;;46.60;24.23;;;;;;;1.89;94.57;98260.73;4489154;78;21171;-89
2021/01/05 14:38:14;;;;;;;44.27;22.60;;;;;;;1.85;94.35;98263.31;4491065;78;21136;-90
2021/01/05 14:44:27;;;;;;;40.30;22.20;;;;;;;1.85;94.21;98269.28;4494569;78;21217;-90
2021/01/05 14:50:28;;;;;;;45.40;24.72;;;;;;;1.80;94.27;98272.99;4488348;78;21168;-90
2021/01/05 14:56:30;;;;;;;48.23;24.67;;;;;;;1.78;94.32;98279.28;4489324;78;21639;-89
2021/01/05 15:02:32;;;;;;;50.75;24.45;;;;;;;1.74;94.35;98287.80;4486742;78;21483;-89
2021/01/05 15:08:33;;;;;;;47.38;24.12;;;;;;;1.71;94.42;98287.70;4486979;78;21124;-88
2021/01/05 15:14:36;;;;;;;51.02;24.67;;;;;;;1.72;94.29;98287.91;4477464;78;21136;-89
2021/01/05 15:20:37;;;;;;;47.40;24.80;;;;;;;1.69;94.08;98289.38;4486947;78;21434;-89
2021/01/05 15:26:39;;;;;;;49.40;24.18;;;;;;;1.62;94.26;98295.87;4485596;78;21460;-90
2021/01/05 15:32:41;;;;;;;52.03;25.45;;;;;;;1.63;94.31;98300.71;4485426;78;21641;-90
2021/01/05 15:38:42;;;;;;;47.23;24.07;;;;;;;1.65;94.35;98299.25;4497379;78;21104;-91
2021/01/05 15:44:44;;;;;;;50.15;25.75;;;;;;;1.57;94.37;98308.21;4481492;78;21176;-91
2021/01/05 15:50:46;;;;;;;48.68;24.80;;;;;;;1.56;94.38;98303.40;4477448;78;21915;-91
2021/01/05 15:56:53;;;;;;;51.58;26.40;;;;;;;1.55;94.38;98311.24;4486744;78;21593;-90
2021/01/05 16:02:55;;;;;;;54.45;26.27;;;;;;;1.51;94.40;98307.65;4485127;78;21096;-90
2021/01/05 16:09:00;;;;;;;59.40;29.42;;;;;;;1.51;94.42;98308.20;4487459;78;21136;-91
2021/01/05 16:15:01;;;;;;;69.00;31.75;;;;;;;1.49;94.52;98319.31;4483075;78;21153;-89
2021/01/05 16:21:04;;;;;;;62.50;29.42;;;;;;;1.52;94.53;98312.46;4491662;78;21577;-90
2021/01/05 16:27:06;;;;;;;62.17;29.75;;;;;;;1.54;94.53;98312.38;4492613;78;21504;-90
2021/01/05 16:33:08;;;;;;;58.38;29.67;;;;;;;1.54;94.37;98314.27;4486351;78;21614;-90
2021/01/05 16:39:09;;;;;;;57.55;28.20;;;;;;;1.52;94.27;98322.70;4491473;78;21121;-90
2021/01/05 16:45:13;;;;;;;57.90;27.45;;;;;;;1.49;94.42;98330.11;4486626;78;21168;-90
2021/01/05 16:51:15;;;;;;;56.05;27.90;;;;;;;1.53;94.51;98336.41;4490206;78;21164;-91
2021/01/05 16:57:16;;;;;;;56.18;28.23;;;;;;;1.55;94.43;98337.45;4489576;78;21442;-90
2021/01/05 17:03:18;;;;;;;52.90;27.77;;;;;;;1.52;94.39;98346.98;4488398;78;21157;-91
2021/01/05 17:09:20;;;;;;;55.55;27.40;;;;;;;1.40;94.52;98335.34;4475940;78;21152;-90
2021/01/05 17:15:26;;;;;;;60.20;29.15;;;;;;;1.40;94.52;98335.34;4454165;79;21125;-91
2021/01/05 17:21:28;;;;;;;55.50;28.47;;;;;;;1.53;94.45;98357.98;4450691;78;21156;-90
2021/01/05 17:27:30;;;;;;;53.70;28.80;;;;;;;1.53;94.35;98358.56;4455236;78;21140;-91
2021/01/05 17:33:31;;;;;;;57.62;26.10;;;;;;;1.47;94.14;98359.31;4457329;78;21176;-91
2021/01/05 17:39:35;;;;;;;55.10;26.57;;;;;;;1.39;94.39;98366.14;4453093;78;21152;-91
2021/01/05 17:45:39;;;;;;;51.33;24.10;;;;;;;1.35;94.26;98378.69;4355928;79;21171;-90
2021/01/05 17:51:40;;;;;;;48.63;23.65;;;;;;;1.30;94.10;98380.27;4404912;78;21168;-91
2021/01/05 17:57:42;;;;;;;49.42;21.52;;;;;;;1.29;94.02;98386.20;4453696;78;21128;-91
2021/01/05 18:03:44;;;;;;;47.55;22.65;;;;;;;1.25;94.16;98393.93;4454934;78;21128;-91
2021/01/05 18:09:48;;;;;;;50.25;22.70;;;;;;;1.24;94.23;98409.31;4468662;77;21562;-90
2021/01/05 18:15:50;;;;;;;47.05;22.05;;;;;;;1.22;94.14;98407.49;4485269;78;21220;-91
2021/01/05 18:21:51;;;;;;;42.48;20.72;;;;;;;1.22;94.15;98410.19;4481270;78;21175;-91
2021/01/05 18:27:54;;;;;;;52.05;21.50;;;;;;;1.23;94.09;98416.37;4482148;78;21196;-89
2021/01/05 18:33:55;;;;;;;43.60;21.40;;;;;;;1.22;94.55;98423.67;4486148;78;21136;-89
2021/01/05 18:39:57;;;;;;;44.13;21.07;;;;;;;1.22;94.55;98423.67;4490547;78;21287;-89
2021/01/05 18:45:59;;;;;;;55.75;22.02;;;;;;;1.22;94.26;98422.32;4486419;78;21702;-88
2021/01/05 18:52:00;;;;;;;41.80;20.32;;;;;;;1.26;94.23;98423.81;4493197;78;21140;-91
2021/01/05 18:58:04;;;;;;;46.02;21.85;;;;;;;1.26;94.06;98429.20;4489247;78;21199;-91
2021/01/05 19:04:06;;;;;;;47.80;21.02;;;;;;;1.24;94.24;98430.87;4481191;78;21193;-90
2021/01/05 19:10:08;;;;;;;39.88;20.00;;;;;;;1.26;94.10;98444.03;4475378;78;21157;-90
2021/01/05 19:16:13;;;;;;;44.82;20.84;;;;;;;1.30;94.27;98444.98;4327853;78;9999848;-89
2021/01/05 19:22:15;;;;;;;38.00;18.23;;;;;;;1.31;94.11;98450.04;4453544;78;21148;-90
2021/01/05 19:28:16;;;;;;;35.63;18.37;;;;;;;1.34;94.09;98443.98;4452418;78;21152;-90
2021/01/05 19:34:18;;;;;;;39.23;16.93;;;;;;;1.33;94.07;98441.04;4451570;78;21444;-91
2021/01/05 19:40:23;;;;;;;38.15;17.23;;;;;;;1.32;93.94;98451.61;4452233;78;21215;-91
2021/01/05 19:46:28;;;;;;;38.98;18.37;;;;;;;1.35;94.03;98462.28;4452429;78;21156;-91
2021/01/05 19:52:30;;;;;;;35.70;18.67;;;;;;;1.34;93.83;98464.77;4453264;78;22440;-90
2021/01/05 19:58:32;;;;;;;38.25;17.10;;;;;;;1.33;93.92;98471.28;4453834;78;21168;-91
2021/01/05 20:04:33;;;;;;;30.85;15.30;;;;;;;1.28;93.83;98472.81;4450285;78;21148;-91
2021/01/05 20:10:35;;;;;;;33.70;15.03;;;;;;;1.27;93.83;98482.80;4469280;77;21645;-91
2021/01/05 20:16:37;;;;;;;35.83;15.70;;;;;;;1.26;93.84;98485.28;4378823;76;10000326;-90
2021/01/05 20:22:40;;;;;;;33.35;14.65;;;;;;;1.19;93.61;98485.56;4488836;78;21172;-88
2021/01/05 20:28:41;;;;;;;34.80;16.12;;;;;;;1.14;93.71;98494.60;4485934;78;21650;-91
2021/01/05 20:34:43;;;;;;;31.75;15.58;;;;;;;1.06;93.61;98493.31;4476891;78;21171;-91
2021/01/05 20:40:45;;;;;;;29.72;14.78;;;;;;;1.11;93.61;98506.04;4483867;78;21139;-91
2021/01/05 20:46:46;;;;;;;31.23;13.98;;;;;;;1.13;93.61;98512.45;4490629;78;21610;-90
2021/01/05 20:52:48;;;;;;;29.42;13.72;;;;;;;1.12;93.66;98515.73;4482076;78;21180;-91
2021/01/05 20:58:51;;;;;;;26.93;13.45;;;;;;;1.09;93.74;98519.07;4490026;78;21184;-91
2021/01/05 21:04:53;;;;;;;30.65;13.53;;;;;;;1.11;93.62;98524.91;4487028;78;21649;-91
2021/01/05 21:10:54;;;;;;;30.30;13.20;;;;;;;1.11;93.29;98529.53;4485388;78;21136;-90
2021/01/05 21:16:59;;;;;;;26.02;12.55;;;;;;;1.04;93.31;98534.62;4485117;78;21104;-91
2021/01/05 21:23:03;;;;;;;30.05;12.07;;;;;;;1.04;93.31;98534.62;4484908;78;21630;-91
2021/01/05 21:29:05;;;;;;;30.88;13.22;;;;;;;0.96;93.32;98540.83;4476566;78;21309;-91
2021/01/05 21:35:10;;;;;;;30.65;15.32;;;;;;;0.96;93.32;98540.83;4484159;78;21191;-90
2021/01/05 21:41:12;;;;;;;26.45;13.15;;;;;;;0.97;93.52;98546.48;4487388;78;21273;-91
2021/01/05 21:47:14;;;;;;;33.98;15.63;;;;;;;0.97;93.74;98539.16;4490527;78;21159;-90
2021/01/05 21:53:19;;;;;;;30.37;14.20;;;;;;;0.94;93.65;98544.42;4486261;78;21788;-91
2021/01/05 21:59:21;;;;;;;32.23;14.93;;;;;;;0.94;93.65;98544.42;4489061;78;21734;-90
2021/01/05 22:05:26;;;;;;;34.70;15.20;;;;;;;0.88;93.55;98549.19;4488178;78;21165;-90
2021/01/05 22:11:28;;;;;;;27.48;13.88;;;;;;;0.82;93.15;98547.78;4491597;78;21157;-90
2021/01/05 22:17:30;;;;;;;34.78;15.85;;;;;;;0.82;93.15;98547.78;4506131;76;21137;-91
2021/01/05 22:23:31;;;;;;;32.95;14.50;;;;;;;0.78;93.26;98546.86;4493776;78;21450;-91
2021/01/05 22:29:33;;;;;;;34.10;14.60;;;;;;;0.67;93.44;98546.16;4481610;78;21076;-92
2021/01/05 22:35:37;;;;;;;38.80;18.52;;;;;;;0.68;93.53;98543.15;4486948;78;21125;-91
2021/01/05 22:41:43;;;;;;;36.40;16.65;;;;;;;0.58;93.63;98539.44;4479924;78;22210;-91
2021/01/05 22:47:45;;;;;;;37.25;17.27;;;;;;;0.56;93.55;98541.69;4490780;78;21105;-90
2021/01/05 22:53:46;;;;;;;40.65;17.77;;;;;;;0.47;93.60;98536.84;4488190;78;21185;-91
2021/01/05 22:59:47;;;;;;;42.20;18.55;;;;;;;0.40;93.52;98533.06;4488673;78;21757;-91
2021/01/05 23:05:50;;;;;;;34.80;17.52;;;;;;;0.21;93.60;98558.19;4494292;78;21582;-90
2021/01/05 23:11:52;;;;;;;42.10;19.23;;;;;;;0.21;93.60;98558.19;4486243;78;21153;-92
2021/01/05 23:18:06;;;;;;;36.33;18.17;;;;;;;0.14;93.78;98576.18;4478903;78;21581;-91
2021/01/05 23:24:11;;;;;;;43.17;18.10;;;;;;;0.23;93.84;98578.85;4484257;78;21113;-90
2021/01/05 23:30:21;;;;;;;32.88;16.32;;;;;;;0.38;94.12;98567.59;4492173;78;21216;-90
2021/01/05 23:36:48;;;;;;;37.48;16.23;;;;;;;0.41;93.77;98577.17;4486825;78;21160;-91
2021/01/05 23:42:51;;;;;;;36.13;17.65;;;;;;;0.44;94.23;98558.26;4482063;78;21177;-90
2021/01/05 23:48:56;;;;;;;39.48;17.77;;;;;;;0.62;94.15;98570.57;4481638;78;21181;-90
2021/01/05 23:54:58;;;;;;;63.70;24.57;;;;;;;0.66;93.95;98572.88;4493761;78;21145;-90
